sensor_id;sensor_type;location;lat;lon;timestamp;temperature;humidity
18337;DHT22;9294;51.106;7.028;2023-04-25T00:01:19;20.90;89.00
18337;DHT22;9294;51.106;7.028;2023-04-25T00:03:47;20.80;88.90
18337;DHT22;9294;51.106;7.028;2023-04-25T00:06:13;20.80;88.20
18337;DHT22;9294;51.106;7.028;2023-04-25T00:08:40;20.80;88.80
18337;DHT22;9294;51.106;7.028;2023-04-25T00:11:07;20.80;88.80
18337;DHT22;9294;51.106;7.028;2023-04-25T00:13:34;20.80;88.80
18337;DHT22;9294;51.106;7.028;2023-04-25T00:16:01;20.80;88.90
18337;DHT22;9294;51.106;7.028;2023-04-25T00:18:29;20.80;88.80
18337;DHT22;9294;51.106;7.028;2023-04-25T00:20:55;20.80;88.80
18337;DHT22;9294;51.106;7.028;2023-04-25T00:23:22;20.80;88.80
18337;DHT22;9294;51.106;7.028;2023-04-25T00:25:49;20.70;88.70
18337;DHT22;9294;51.106;7.028;2023-04-25T00:28:17;20.80;88.80
18337;DHT22;9294;51.106;7.028;2023-04-25T00:30:43;20.80;88.70
18337;DHT22;9294;51.106;7.028;2023-04-25T00:33:10;20.80;88.80
18337;DHT22;9294;51.106;7.028;2023-04-25T00:35:38;20.70;88.80
18337;DHT22;9294;51.106;7.028;2023-04-25T00:38:05;20.70;88.70
18337;DHT22;9294;51.106;7.028;2023-04-25T00:40:32;20.70;88.70
18337;DHT22;9294;51.106;7.028;2023-04-25T00:42:59;20.70;88.70
18337;DHT22;9294;51.106;7.028;2023-04-25T00:45:28;20.70;88.70
18337;DHT22;9294;51.106;7.028;2023-04-25T00:47:56;20.70;88.70
18337;DHT22;9294;51.106;7.028;2023-04-25T00:50:23;20.70;88.80
18337;DHT22;9294;51.106;7.028;2023-04-25T00:52:51;20.70;88.70
18337;DHT22;9294;51.106;7.028;2023-04-25T00:55:18;20.60;88.60
18337;DHT22;9294;51.106;7.028;2023-04-25T00:57:46;20.70;88.80
18337;DHT22;9294;51.106;7.028;2023-04-25T01:00:13;20.60;88.70
18337;DHT22;9294;51.106;7.028;2023-04-25T01:02:41;20.60;88.60
18337;DHT22;9294;51.106;7.028;2023-04-25T01:05:08;20.70;88.70
18337;DHT22;9294;51.106;7.028;2023-04-25T01:07:35;20.60;88.70
18337;DHT22;9294;51.106;7.028;2023-04-25T01:10:04;20.60;88.60
18337;DHT22;9294;51.106;7.028;2023-04-25T01:12:31;20.60;88.60
18337;DHT22;9294;51.106;7.028;2023-04-25T01:14:58;20.60;88.70
18337;DHT22;9294;51.106;7.028;2023-04-25T01:17:25;20.60;88.70
18337;DHT22;9294;51.106;7.028;2023-04-25T01:19:52;20.60;88.70
18337;DHT22;9294;51.106;7.028;2023-04-25T01:22:21;20.60;88.80
18337;DHT22;9294;51.106;7.028;2023-04-25T01:24:48;20.60;88.70
18337;DHT22;9294;51.106;7.028;2023-04-25T01:27:15;20.50;88.60
18337;DHT22;9294;51.106;7.028;2023-04-25T01:29:42;20.50;88.60
18337;DHT22;9294;51.106;7.028;2023-04-25T01:32:09;20.50;88.60
18337;DHT22;9294;51.106;7.028;2023-04-25T01:34:36;20.50;88.60
18337;DHT22;9294;51.106;7.028;2023-04-25T01:37:02;20.50;88.60
18337;DHT22;9294;51.106;7.028;2023-04-25T01:39:30;20.50;88.60
18337;DHT22;9294;51.106;7.028;2023-04-25T01:41:59;20.50;88.60
18337;DHT22;9294;51.106;7.028;2023-04-25T01:44:26;20.50;88.60
18337;DHT22;9294;51.106;7.028;2023-04-25T01:46:53;20.50;88.60
18337;DHT22;9294;51.106;7.028;2023-04-25T01:49:20;20.50;88.60
18337;DHT22;9294;51.106;7.028;2023-04-25T01:51:47;20.50;88.60
18337;DHT22;9294;51.106;7.028;2023-04-25T01:54:13;20.50;88.60
18337;DHT22;9294;51.106;7.028;2023-04-25T01:56:41;20.50;88.60
18337;DHT22;9294;51.106;7.028;2023-04-25T01:59:08;20.40;88.50
18337;DHT22;9294;51.106;7.028;2023-04-25T02:01:35;20.40;88.60
18337;DHT22;9294;51.106;7.028;2023-04-25T02:04:01;20.40;88.60
18337;DHT22;9294;51.106;7.028;2023-04-25T02:06:28;20.40;88.60
18337;DHT22;9294;51.106;7.028;2023-04-25T02:08:56;20.40;88.60
18337;DHT22;9294;51.106;7.028;2023-04-25T02:11:23;20.50;88.60
18337;DHT22;9294;51.106;7.028;2023-04-25T02:13:51;20.40;88.60
18337;DHT22;9294;51.106;7.028;2023-04-25T02:16:17;20.40;87.90
18337;DHT22;9294;51.106;7.028;2023-04-25T02:18:44;20.40;88.60
18337;DHT22;9294;51.106;7.028;2023-04-25T02:21:11;20.40;88.60
18337;DHT22;9294;51.106;7.028;2023-04-25T02:23:38;20.40;87.90
18337;DHT22;9294;51.106;7.028;2023-04-25T02:26:05;20.40;88.60
18337;DHT22;9294;51.106;7.028;2023-04-25T02:28:32;20.40;88.50
18337;DHT22;9294;51.106;7.028;2023-04-25T02:31:00;20.40;88.60
18337;DHT22;9294;51.106;7.028;2023-04-25T02:33:26;20.40;88.60
18337;DHT22;9294;51.106;7.028;2023-04-25T02:35:53;20.40;88.60
18337;DHT22;9294;51.106;7.028;2023-04-25T02:38:20;20.40;88.60
18337;DHT22;9294;51.106;7.028;2023-04-25T02:40:46;20.40;88.60
18337;DHT22;9294;51.106;7.028;2023-04-25T02:43:13;20.30;88.50
18337;DHT22;9294;51.106;7.028;2023-04-25T02:45:41;20.30;88.40
18337;DHT22;9294;51.106;7.028;2023-04-25T02:48:09;20.30;88.50
18337;DHT22;9294;51.106;7.028;2023-04-25T02:50:36;20.30;88.50
18337;DHT22;9294;51.106;7.028;2023-04-25T02:53:03;20.30;88.50
18337;DHT22;9294;51.106;7.028;2023-04-25T02:55:29;20.30;88.60
18337;DHT22;9294;51.106;7.028;2023-04-25T02:57:56;20.30;88.50
18337;DHT22;9294;51.106;7.028;2023-04-25T03:00:23;20.30;88.50
18337;DHT22;9294;51.106;7.028;2023-04-25T03:02:50;20.30;88.50
18337;DHT22;9294;51.106;7.028;2023-04-25T03:05:18;20.30;88.50
18337;DHT22;9294;51.106;7.028;2023-04-25T03:07:45;20.30;88.50
18337;DHT22;9294;51.106;7.028;2023-04-25T03:10:12;20.30;88.50
18337;DHT22;9294;51.106;7.028;2023-04-25T03:12:39;20.30;88.50
18337;DHT22;9294;51.106;7.028;2023-04-25T03:15:06;20.30;88.40
18337;DHT22;9294;51.106;7.028;2023-04-25T03:17:33;20.30;88.40
18337;DHT22;9294;51.106;7.028;2023-04-25T03:20:00;20.30;88.50
18337;DHT22;9294;51.106;7.028;2023-04-25T03:22:28;20.20;88.40
18337;DHT22;9294;51.106;7.028;2023-04-25T03:24:55;20.20;87.70
18337;DHT22;9294;51.106;7.028;2023-04-25T03:27:22;20.20;88.40
18337;DHT22;9294;51.106;7.028;2023-04-25T03:29:49;20.20;88.40
18337;DHT22;9294;51.106;7.028;2023-04-25T03:32:15;20.20;88.50
18337;DHT22;9294;51.106;7.028;2023-04-25T03:34:42;20.20;88.40
18337;DHT22;9294;51.106;7.028;2023-04-25T03:37:09;20.20;88.40
18337;DHT22;9294;51.106;7.028;2023-04-25T03:39:37;20.20;88.40
18337;DHT22;9294;51.106;7.028;2023-04-25T03:42:04;20.20;88.40
18337;DHT22;9294;51.106;7.028;2023-04-25T03:44:31;20.20;88.50
18337;DHT22;9294;51.106;7.028;2023-04-25T03:46:57;20.10;88.40
18337;DHT22;9294;51.106;7.028;2023-04-25T03:49:24;20.10;88.40
18337;DHT22;9294;51.106;7.028;2023-04-25T03:51:51;20.20;87.80
18337;DHT22;9294;51.106;7.028;2023-04-25T03:54:18;20.10;88.40
18337;DHT22;9294;51.106;7.028;2023-04-25T03:56:46;20.20;87.80
18337;DHT22;9294;51.106;7.028;2023-04-25T03:59:14;20.10;87.80
18337;DHT22;9294;51.106;7.028;2023-04-25T04:01:40;20.10;87.70
18337;DHT22;9294;51.106;7.028;2023-04-25T04:04:07;20.10;88.50
18337;DHT22;9294;51.106;7.028;2023-04-25T04:06:34;20.10;87.70
18337;DHT22;9294;51.106;7.028;2023-04-25T04:09:01;20.20;88.50
18337;DHT22;9294;51.106;7.028;2023-04-25T04:11:28;20.10;87.70
18337;DHT22;9294;51.106;7.028;2023-04-25T04:13:58;20.10;88.50
18337;DHT22;9294;51.106;7.028;2023-04-25T04:16:24;20.10;87.80
18337;DHT22;9294;51.106;7.028;2023-04-25T04:18:51;20.10;88.50
18337;DHT22;9294;51.106;7.028;2023-04-25T04:21:18;20.10;88.50
18337;DHT22;9294;51.106;7.028;2023-04-25T04:23:44;20.10;87.70
18337;DHT22;9294;51.106;7.028;2023-04-25T04:26:11;20.10;87.80
18337;DHT22;9294;51.106;7.028;2023-04-25T04:28:38;20.10;87.70
18337;DHT22;9294;51.106;7.028;2023-04-25T04:31:07;20.10;88.50
18337;DHT22;9294;51.106;7.028;2023-04-25T04:33:35;20.10;87.70
18337;DHT22;9294;51.106;7.028;2023-04-25T04:36:02;20.00;87.70
18337;DHT22;9294;51.106;7.028;2023-04-25T04:38:28;20.10;88.50
18337;DHT22;9294;51.106;7.028;2023-04-25T04:40:55;22.20;90.20
18337;DHT22;9294;51.106;7.028;2023-04-25T04:43:22;20.00;87.70
18337;DHT22;9294;51.106;7.028;2023-04-25T04:45:49;20.00;88.30
18337;DHT22;9294;51.106;7.028;2023-04-25T04:48:17;20.10;88.50
18337;DHT22;9294;51.106;7.028;2023-04-25T04:50:44;20.00;87.60
18337;DHT22;9294;51.106;7.028;2023-04-25T04:53:12;20.00;88.40
18337;DHT22;9294;51.106;7.028;2023-04-25T04:55:39;20.00;87.70
18337;DHT22;9294;51.106;7.028;2023-04-25T04:58:06;20.00;87.60
18337;DHT22;9294;51.106;7.028;2023-04-25T05:00:33;20.00;88.40
18337;DHT22;9294;51.106;7.028;2023-04-25T05:03:00;20.10;87.80
18337;DHT22;9294;51.106;7.028;2023-04-25T05:05:28;20.00;87.60
18337;DHT22;9294;51.106;7.028;2023-04-25T05:07:55;20.00;88.40
18337;DHT22;9294;51.106;7.028;2023-04-25T05:10:21;20.00;88.40
18337;DHT22;9294;51.106;7.028;2023-04-25T05:12:48;20.00;88.50
18337;DHT22;9294;51.106;7.028;2023-04-25T05:15:15;20.00;87.80
18337;DHT22;9294;51.106;7.028;2023-04-25T05:17:41;20.00;87.60
18337;DHT22;9294;51.106;7.028;2023-04-25T05:20:09;20.00;87.70
18337;DHT22;9294;51.106;7.028;2023-04-25T05:22:37;20.00;88.40
18337;DHT22;9294;51.106;7.028;2023-04-25T05:25:04;19.90;87.70
18337;DHT22;9294;51.106;7.028;2023-04-25T05:27:32;19.90;88.50
18337;DHT22;9294;51.106;7.028;2023-04-25T05:29:59;20.00;88.30
18337;DHT22;9294;51.106;7.028;2023-04-25T05:32:25;20.00;88.30
18337;DHT22;9294;51.106;7.028;2023-04-25T05:34:52;20.00;88.20
18337;DHT22;9294;51.106;7.028;2023-04-25T05:37:19;20.00;88.30
18337;DHT22;9294;51.106;7.028;2023-04-25T05:39:47;20.00;89.00
18337;DHT22;9294;51.106;7.028;2023-04-25T05:42:14;20.00;89.10
18337;DHT22;9294;51.106;7.028;2023-04-25T05:44:40;20.00;89.40
18337;DHT22;9294;51.106;7.028;2023-04-25T05:47:07;20.00;89.20
18337;DHT22;9294;51.106;7.028;2023-04-25T05:49:34;20.00;89.90
18337;DHT22;9294;51.106;7.028;2023-04-25T05:52:01;19.90;89.40
18337;DHT22;9294;51.106;7.028;2023-04-25T05:54:27;20.00;89.70
18337;DHT22;9294;51.106;7.028;2023-04-25T05:56:56;20.00;89.80
18337;DHT22;9294;51.106;7.028;2023-04-25T05:59:23;20.00;89.80
18337;DHT22;9294;51.106;7.028;2023-04-25T06:01:49;20.00;89.80
18337;DHT22;9294;51.106;7.028;2023-04-25T06:04:17;20.00;89.90
18337;DHT22;9294;51.106;7.028;2023-04-25T06:06:43;20.00;89.90
18337;DHT22;9294;51.106;7.028;2023-04-25T06:09:10;20.00;90.30
18337;DHT22;9294;51.106;7.028;2023-04-25T06:11:37;20.00;90.10
18337;DHT22;9294;51.106;7.028;2023-04-25T06:14:05;20.00;90.40
18337;DHT22;9294;51.106;7.028;2023-04-25T06:16:32;20.00;90.00
18337;DHT22;9294;51.106;7.028;2023-04-25T06:18:59;20.00;90.40
18337;DHT22;9294;51.106;7.028;2023-04-25T06:21:26;20.00;90.40
18337;DHT22;9294;51.106;7.028;2023-04-25T06:23:53;20.00;90.20
18337;DHT22;9294;51.106;7.028;2023-04-25T06:26:20;20.00;90.30
18337;DHT22;9294;51.106;7.028;2023-04-25T06:28:47;20.00;90.30
18337;DHT22;9294;51.106;7.028;2023-04-25T06:31:14;20.00;90.30
18337;DHT22;9294;51.106;7.028;2023-04-25T06:33:41;20.00;90.60
18337;DHT22;9294;51.106;7.028;2023-04-25T06:36:08;20.00;90.70
18337;DHT22;9294;51.106;7.028;2023-04-25T06:38:35;19.90;90.40
18337;DHT22;9294;51.106;7.028;2023-04-25T06:41:01;20.00;90.80
18337;DHT22;9294;51.106;7.028;2023-04-25T06:43:28;20.00;90.90
18337;DHT22;9294;51.106;7.028;2023-04-25T06:45:58;20.00;90.80
18337;DHT22;9294;51.106;7.028;2023-04-25T06:48:26;20.00;90.80
18337;DHT22;9294;51.106;7.028;2023-04-25T06:50:53;20.00;90.80
18337;DHT22;9294;51.106;7.028;2023-04-25T06:53:20;19.90;90.30
18337;DHT22;9294;51.106;7.028;2023-04-25T06:55:46;20.00;90.30
18337;DHT22;9294;51.106;7.028;2023-04-25T06:58:13;20.00;90.30
18337;DHT22;9294;51.106;7.028;2023-04-25T07:00:40;20.00;90.60
18337;DHT22;9294;51.106;7.028;2023-04-25T07:03:07;20.00;90.60
18337;DHT22;9294;51.106;7.028;2023-04-25T07:05:35;20.00;90.70
18337;DHT22;9294;51.106;7.028;2023-04-25T07:08:02;20.00;90.70
18337;DHT22;9294;51.106;7.028;2023-04-25T07:10:29;20.00;90.50
18337;DHT22;9294;51.106;7.028;2023-04-25T07:12:55;20.00;90.80
18337;DHT22;9294;51.106;7.028;2023-04-25T07:15:22;20.00;90.90
18337;DHT22;9294;51.106;7.028;2023-04-25T07:17:49;19.90;90.40
18337;DHT22;9294;51.106;7.028;2023-04-25T07:20:15;19.90;90.40
18337;DHT22;9294;51.106;7.028;2023-04-25T07:22:43;19.90;90.80
18337;DHT22;9294;51.106;7.028;2023-04-25T07:25:10;19.90;90.70
18337;DHT22;9294;51.106;7.028;2023-04-25T07:27:37;19.90;90.30
18337;DHT22;9294;51.106;7.028;2023-04-25T07:30:05;19.90;90.70
18337;DHT22;9294;51.106;7.028;2023-04-25T07:32:32;19.90;90.70
18337;DHT22;9294;51.106;7.028;2023-04-25T07:34:59;19.80;90.30
18337;DHT22;9294;51.106;7.028;2023-04-25T07:37:27;19.80;90.60
18337;DHT22;9294;51.106;7.028;2023-04-25T07:39:55;19.90;90.60
18337;DHT22;9294;51.106;7.028;2023-04-25T07:42:21;19.80;90.50
18337;DHT22;9294;51.106;7.028;2023-04-25T07:44:48;19.90;90.10
18337;DHT22;9294;51.106;7.028;2023-04-25T07:47:15;19.80;90.10
18337;DHT22;9294;51.106;7.028;2023-04-25T07:49:44;19.80;90.10
18337;DHT22;9294;51.106;7.028;2023-04-25T07:52:11;19.80;90.10
18337;DHT22;9294;51.106;7.028;2023-04-25T07:54:38;19.80;90.10
18337;DHT22;9294;51.106;7.028;2023-04-25T07:57:06;19.80;90.00
18337;DHT22;9294;51.106;7.028;2023-04-25T07:59:32;19.80;90.00
18337;DHT22;9294;51.106;7.028;2023-04-25T08:02:00;19.80;90.30
18337;DHT22;9294;51.106;7.028;2023-04-25T08:04:28;19.80;90.30
18337;DHT22;9294;51.106;7.028;2023-04-25T08:06:54;19.80;90.00
18337;DHT22;9294;51.106;7.028;2023-04-25T08:09:22;19.80;90.00
18337;DHT22;9294;51.106;7.028;2023-04-25T08:11:48;19.80;90.00
18337;DHT22;9294;51.106;7.028;2023-04-25T08:14:16;19.80;90.00
18337;DHT22;9294;51.106;7.028;2023-04-25T08:16:43;19.80;90.00
18337;DHT22;9294;51.106;7.028;2023-04-25T08:19:10;19.70;89.90
18337;DHT22;9294;51.106;7.028;2023-04-25T08:21:37;19.80;90.00
18337;DHT22;9294;51.106;7.028;2023-04-25T08:24:04;19.80;89.80
18337;DHT22;9294;51.106;7.028;2023-04-25T08:26:31;19.80;89.50
18337;DHT22;9294;51.106;7.028;2023-04-25T08:28:58;19.80;89.60
18337;DHT22;9294;51.106;7.028;2023-04-25T08:31:26;19.80;89.60
18337;DHT22;9294;51.106;7.028;2023-04-25T08:33:53;19.80;90.10
18337;DHT22;9294;51.106;7.028;2023-04-25T08:36:19;19.80;89.90
18337;DHT22;9294;51.106;7.028;2023-04-25T08:38:46;19.80;90.00
18337;DHT22;9294;51.106;7.028;2023-04-25T08:41:13;19.80;89.70
18337;DHT22;9294;51.106;7.028;2023-04-25T08:43:42;19.80;90.20
18337;DHT22;9294;51.106;7.028;2023-04-25T08:46:09;19.80;89.70
18337;DHT22;9294;51.106;7.028;2023-04-25T08:48:40;19.80;89.60
18337;DHT22;9294;51.106;7.028;2023-04-25T08:51:07;19.80;90.10
18337;DHT22;9294;51.106;7.028;2023-04-25T08:53:35;19.70;89.60
18337;DHT22;9294;51.106;7.028;2023-04-25T08:56:01;19.70;89.60
18337;DHT22;9294;51.106;7.028;2023-04-25T08:58:29;19.70;89.50
18337;DHT22;9294;51.106;7.028;2023-04-25T09:00:55;19.70;89.60
18337;DHT22;9294;51.106;7.028;2023-04-25T09:03:22;19.70;89.40
18337;DHT22;9294;51.106;7.028;2023-04-25T09:05:51;19.70;90.10
18337;DHT22;9294;51.106;7.028;2023-04-25T09:08:18;19.70;89.60
18337;DHT22;9294;51.106;7.028;2023-04-25T09:10:44;19.70;89.60
18337;DHT22;9294;51.106;7.028;2023-04-25T09:13:13;19.70;89.40
18337;DHT22;9294;51.106;7.028;2023-04-25T09:15:48;19.70;90.10
18337;DHT22;9294;51.106;7.028;2023-04-25T09:18:22;19.80;89.90
18337;DHT22;9294;51.106;7.028;2023-04-25T09:20:52;19.80;90.30
18337;DHT22;9294;51.106;7.028;2023-04-25T09:23:20;19.90;90.10
18337;DHT22;9294;51.106;7.028;2023-04-25T09:25:47;19.90;90.50
18337;DHT22;9294;51.106;7.028;2023-04-25T09:28:14;20.00;90.40
18337;DHT22;9294;51.106;7.028;2023-04-25T09:30:41;20.20;89.60
18337;DHT22;9294;51.106;7.028;2023-04-25T09:33:09;20.40;90.00
18337;DHT22;9294;51.106;7.028;2023-04-25T09:35:37;20.40;90.30
18337;DHT22;9294;51.106;7.028;2023-04-25T09:38:09;20.50;90.70
18337;DHT22;9294;51.106;7.028;2023-04-25T09:40:39;20.70;90.50
18337;DHT22;9294;51.106;7.028;2023-04-25T09:43:09;20.70;90.80
18337;DHT22;9294;51.106;7.028;2023-04-25T09:45:41;20.90;90.30
18337;DHT22;9294;51.106;7.028;2023-04-25T09:48:11;20.90;90.80
18337;DHT22;9294;51.106;7.028;2023-04-25T09:50:38;21.00;90.70
18337;DHT22;9294;51.106;7.028;2023-04-25T09:53:06;21.00;90.70
18337;DHT22;9294;51.106;7.028;2023-04-25T09:55:35;21.10;90.80
18337;DHT22;9294;51.106;7.028;2023-04-25T09:58:05;21.10;90.50
18337;DHT22;9294;51.106;7.028;2023-04-25T10:00:33;21.20;90.20
18337;DHT22;9294;51.106;7.028;2023-04-25T10:03:01;21.20;90.50
18337;DHT22;9294;51.106;7.028;2023-04-25T10:05:30;21.20;90.50
18337;DHT22;9294;51.106;7.028;2023-04-25T10:07:59;21.20;90.60
18337;DHT22;9294;51.106;7.028;2023-04-25T10:10:29;21.20;90.70
18337;DHT22;9294;51.106;7.028;2023-04-25T10:13:03;21.20;90.80
18337;DHT22;9294;51.106;7.028;2023-04-25T10:15:30;21.20;90.90
18337;DHT22;9294;51.106;7.028;2023-04-25T10:17:58;21.20;91.00
18337;DHT22;9294;51.106;7.028;2023-04-25T10:20:26;21.20;91.00
18337;DHT22;9294;51.106;7.028;2023-04-25T10:22:55;21.40;91.30
18337;DHT22;9294;51.106;7.028;2023-04-25T10:25:24;21.20;91.30
18337;DHT22;9294;51.106;7.028;2023-04-25T10:27:51;21.20;91.40
18337;DHT22;9294;51.106;7.028;2023-04-25T10:30:19;21.20;91.30
18337;DHT22;9294;51.106;7.028;2023-04-25T10:32:47;21.20;91.40
18337;DHT22;9294;51.106;7.028;2023-04-25T10:35:17;21.20;91.40
18337;DHT22;9294;51.106;7.028;2023-04-25T10:37:57;21.20;91.40
18337;DHT22;9294;51.106;7.028;2023-04-25T10:40:24;21.20;91.10
18337;DHT22;9294;51.106;7.028;2023-04-25T10:42:52;21.20;91.20
18337;DHT22;9294;51.106;7.028;2023-04-25T10:45:20;21.20;91.10
18337;DHT22;9294;51.106;7.028;2023-04-25T10:47:47;21.20;91.10
18337;DHT22;9294;51.106;7.028;2023-04-25T10:50:14;21.20;91.10
18337;DHT22;9294;51.106;7.028;2023-04-25T10:52:41;21.20;91.00
18337;DHT22;9294;51.106;7.028;2023-04-25T10:55:08;21.10;91.10
18337;DHT22;9294;51.106;7.028;2023-04-25T10:57:40;21.10;91.10
18337;DHT22;9294;51.106;7.028;2023-04-25T11:00:15;21.10;91.10
18337;DHT22;9294;51.106;7.028;2023-04-25T11:02:45;21.20;91.20
18337;DHT22;9294;51.106;7.028;2023-04-25T11:05:22;21.20;91.30
18337;DHT22;9294;51.106;7.028;2023-04-25T11:07:51;21.20;91.00
18337;DHT22;9294;51.106;7.028;2023-04-25T11:10:18;21.20;91.10
18337;DHT22;9294;51.106;7.028;2023-04-25T11:12:46;21.20;91.20
18337;DHT22;9294;51.106;7.028;2023-04-25T11:15:13;21.20;91.40
18337;DHT22;9294;51.106;7.028;2023-04-25T11:17:40;21.20;91.10
18337;DHT22;9294;51.106;7.028;2023-04-25T11:20:08;21.20;91.10
18337;DHT22;9294;51.106;7.028;2023-04-25T11:22:37;21.20;91.00
18337;DHT22;9294;51.106;7.028;2023-04-25T11:25:05;21.20;91.00
18337;DHT22;9294;51.106;7.028;2023-04-25T11:27:32;21.30;91.10
18337;DHT22;9294;51.106;7.028;2023-04-25T11:30:10;21.30;91.00
18337;DHT22;9294;51.106;7.028;2023-04-25T11:32:36;21.30;90.90
18337;DHT22;9294;51.106;7.028;2023-04-25T11:35:04;21.30;91.10
18337;DHT22;9294;51.106;7.028;2023-04-25T11:37:32;21.30;91.10
18337;DHT22;9294;51.106;7.028;2023-04-25T11:39:59;21.40;91.60
18337;DHT22;9294;51.106;7.028;2023-04-25T11:42:26;21.30;91.30
18337;DHT22;9294;51.106;7.028;2023-04-25T11:44:53;21.30;91.30
18337;DHT22;9294;51.106;7.028;2023-04-25T11:47:19;21.40;91.40
18337;DHT22;9294;51.106;7.028;2023-04-25T11:49:46;21.30;91.30
18337;DHT22;9294;51.106;7.028;2023-04-25T11:52:13;21.40;91.20
18337;DHT22;9294;51.106;7.028;2023-04-25T11:54:41;21.40;90.90
18337;DHT22;9294;51.106;7.028;2023-04-25T11:57:07;20.40;90.70
18337;DHT22;9294;51.106;7.028;2023-04-25T11:59:34;21.40;91.20
18337;DHT22;9294;51.106;7.028;2023-04-25T12:02:01;21.40;91.20
18337;DHT22;9294;51.106;7.028;2023-04-25T12:04:30;21.40;91.20
18337;DHT22;9294;51.106;7.028;2023-04-25T12:06:57;21.40;91.20
18337;DHT22;9294;51.106;7.028;2023-04-25T12:09:29;21.40;91.30
18337;DHT22;9294;51.106;7.028;2023-04-25T12:11:59;21.40;91.30
18337;DHT22;9294;51.106;7.028;2023-04-25T12:14:29;21.40;91.30
18337;DHT22;9294;51.106;7.028;2023-04-25T12:16:57;21.30;91.30
18337;DHT22;9294;51.106;7.028;2023-04-25T12:19:24;21.30;91.40
18337;DHT22;9294;51.106;7.028;2023-04-25T12:21:52;21.30;91.20
18337;DHT22;9294;51.106;7.028;2023-04-25T12:24:22;21.30;91.20
18337;DHT22;9294;51.106;7.028;2023-04-25T12:26:52;21.30;91.10
18337;DHT22;9294;51.106;7.028;2023-04-25T12:29:24;21.40;91.00
18337;DHT22;9294;51.106;7.028;2023-04-25T12:31:52;21.40;90.80
18337;DHT22;9294;51.106;7.028;2023-04-25T12:34:20;21.40;90.80
18337;DHT22;9294;51.106;7.028;2023-04-25T12:36:47;21.30;90.70
18337;DHT22;9294;51.106;7.028;2023-04-25T12:39:17;21.30;90.70
18337;DHT22;9294;51.106;7.028;2023-04-25T12:41:45;21.30;90.60
18337;DHT22;9294;51.106;7.028;2023-04-25T12:44:12;21.30;90.60
18337;DHT22;9294;51.106;7.028;2023-04-25T12:46:41;21.30;90.60
18337;DHT22;9294;51.106;7.028;2023-04-25T12:49:08;21.30;90.50
18337;DHT22;9294;51.106;7.028;2023-04-25T12:51:35;21.30;90.60
18337;DHT22;9294;51.106;7.028;2023-04-25T12:54:02;21.20;90.70
18337;DHT22;9294;51.106;7.028;2023-04-25T12:56:30;21.10;90.60
18337;DHT22;9294;51.106;7.028;2023-04-25T12:58:56;21.10;91.00
18337;DHT22;9294;51.106;7.028;2023-04-25T13:01:23;21.10;91.10
18337;DHT22;9294;51.106;7.028;2023-04-25T13:03:52;21.10;91.30
18337;DHT22;9294;51.106;7.028;2023-04-25T13:06:20;21.10;90.90
18337;DHT22;9294;51.106;7.028;2023-04-25T13:08:46;21.10;91.20
18337;DHT22;9294;51.106;7.028;2023-04-25T13:11:13;21.10;91.30
18337;DHT22;9294;51.106;7.028;2023-04-25T13:13:41;21.10;91.30
18337;DHT22;9294;51.106;7.028;2023-04-25T13:16:08;21.10;91.30
18337;DHT22;9294;51.106;7.028;2023-04-25T13:18:35;21.20;91.30
18337;DHT22;9294;51.106;7.028;2023-04-25T13:21:03;21.10;90.90
18337;DHT22;9294;51.106;7.028;2023-04-25T13:23:30;21.10;90.80
18337;DHT22;9294;51.106;7.028;2023-04-25T13:25:57;21.10;91.00
18337;DHT22;9294;51.106;7.028;2023-04-25T13:28:24;21.10;91.10
18337;DHT22;9294;51.106;7.028;2023-04-25T13:30:50;21.10;91.20
18337;DHT22;9294;51.106;7.028;2023-04-25T13:33:17;21.10;91.50
18337;DHT22;9294;51.106;7.028;2023-04-25T13:35:44;21.10;91.40
18337;DHT22;9294;51.106;7.028;2023-04-25T13:38:13;21.10;91.30
18337;DHT22;9294;51.106;7.028;2023-04-25T13:40:40;21.10;90.80
18337;DHT22;9294;51.106;7.028;2023-04-25T13:43:06;21.10;91.20
18337;DHT22;9294;51.106;7.028;2023-04-25T13:45:33;21.20;91.10
18337;DHT22;9294;51.106;7.028;2023-04-25T13:48:00;21.10;91.10
18337;DHT22;9294;51.106;7.028;2023-04-25T13:50:26;21.10;91.00
18337;DHT22;9294;51.106;7.028;2023-04-25T13:52:53;21.10;90.90
18337;DHT22;9294;51.106;7.028;2023-04-25T13:55:21;21.20;91.00
18337;DHT22;9294;51.106;7.028;2023-04-25T13:57:48;21.10;90.90
18337;DHT22;9294;51.106;7.028;2023-04-25T14:00:15;21.10;90.90
18337;DHT22;9294;51.106;7.028;2023-04-25T14:02:42;21.10;90.90
18337;DHT22;9294;51.106;7.028;2023-04-25T14:05:09;21.20;90.90
18337;DHT22;9294;51.106;7.028;2023-04-25T14:07:36;21.20;90.80
18337;DHT22;9294;51.106;7.028;2023-04-25T14:10:04;21.20;91.20
18337;DHT22;9294;51.106;7.028;2023-04-25T14:12:32;21.20;90.70
18337;DHT22;9294;51.106;7.028;2023-04-25T14:14:59;21.30;90.80
18337;DHT22;9294;51.106;7.028;2023-04-25T14:17:26;21.30;90.70
18337;DHT22;9294;51.106;7.028;2023-04-25T14:19:53;21.30;90.70
18337;DHT22;9294;51.106;7.028;2023-04-25T14:22:20;21.30;90.60
18337;DHT22;9294;51.106;7.028;2023-04-25T14:24:46;21.30;90.60
18337;DHT22;9294;51.106;7.028;2023-04-25T14:27:13;21.30;90.70
18337;DHT22;9294;51.106;7.028;2023-04-25T14:29:41;21.30;90.60
18337;DHT22;9294;51.106;7.028;2023-04-25T14:32:08;21.30;90.60
18337;DHT22;9294;51.106;7.028;2023-04-25T14:34:35;21.30;90.60
18337;DHT22;9294;51.106;7.028;2023-04-25T14:37:02;21.30;90.60
18337;DHT22;9294;51.106;7.028;2023-04-25T14:39:29;21.30;90.60
18337;DHT22;9294;51.106;7.028;2023-04-25T14:41:55;21.30;90.60
18337;DHT22;9294;51.106;7.028;2023-04-25T14:44:23;21.30;90.50
18337;DHT22;9294;51.106;7.028;2023-04-25T14:46:51;21.30;90.60
18337;DHT22;9294;51.106;7.028;2023-04-25T14:49:18;21.20;90.50
18337;DHT22;9294;51.106;7.028;2023-04-25T14:51:44;21.30;90.20
18337;DHT22;9294;51.106;7.028;2023-04-25T14:54:11;21.30;90.20
18337;DHT22;9294;51.106;7.028;2023-04-25T14:56:38;21.30;90.50
18337;DHT22;9294;51.106;7.028;2023-04-25T14:59:05;21.20;90.20
18337;DHT22;9294;51.106;7.028;2023-04-25T15:01:32;21.20;90.50
18337;DHT22;9294;51.106;7.028;2023-04-25T15:04:00;21.20;90.80
18337;DHT22;9294;51.106;7.028;2023-04-25T15:06:27;21.10;90.50
18337;DHT22;9294;51.106;7.028;2023-04-25T15:08:55;21.20;90.90
18337;DHT22;9294;51.106;7.028;2023-04-25T15:11:22;21.20;90.90
18337;DHT22;9294;51.106;7.028;2023-04-25T15:13:49;21.20;91.20
18337;DHT22;9294;51.106;7.028;2023-04-25T15:16:16;21.20;90.90
18337;DHT22;9294;51.106;7.028;2023-04-25T15:18:42;19.30;90.30
18337;DHT22;9294;51.106;7.028;2023-04-25T15:21:10;21.20;91.00
18337;DHT22;9294;51.106;7.028;2023-04-25T15:23:37;21.20;91.00
18337;DHT22;9294;51.106;7.028;2023-04-25T15:26:04;21.30;91.00
18337;DHT22;9294;51.106;7.028;2023-04-25T15:28:31;21.20;90.80
18337;DHT22;9294;51.106;7.028;2023-04-25T15:30:59;21.20;90.80
18337;DHT22;9294;51.106;7.028;2023-04-25T15:33:26;21.30;90.80
18337;DHT22;9294;51.106;7.028;2023-04-25T15:35:52;21.20;90.80
18337;DHT22;9294;51.106;7.028;2023-04-25T15:38:20;21.20;90.80
18337;DHT22;9294;51.106;7.028;2023-04-25T15:40:47;21.20;90.90
18337;DHT22;9294;51.106;7.028;2023-04-25T15:43:14;21.20;91.00
18337;DHT22;9294;51.106;7.028;2023-04-25T15:45:42;21.20;90.90